Minibex — FKSS — position and weather

sailwx.info

Track history (hours):
 
Tides and Currents Weather Stations Pressure Air Temp Water Temp Dewpoint Dewpoint Depression Visibility Wind Speed Wind Dir Waves Ship Positions

Oceanographic research ship Minibex (France)

Detailed information on ship capabilities available from University of Delaware's Ocean Information Center.

Last reported at 2020-Jun-04 05:31 UTC. Time now 2020-Jul-09 20:55 UTC.
Position N 47°45' W 003°21'.
Warning: this ship's position is 35 days out of date.

Length 30 m.

Type: Dredging. MMSI: 227135000.

Date/timePositionNaut miles runAvg speedWind from/ knotsBaromVisibWave heightAir tempDewpointWater temp
2020-Jun-04 05:31N 47°45' W 003°21'0 0.0
2020-Jun-04 04:31N 47°45' W 003°21'0 0.0
2020-Jun-04 01:31N 47°45' W 003°21'0 0.0
2020-Jun-03 22:01N 47°45' W 003°21'0 0.0
2020-Jun-03 21:01N 47°45' W 003°21'0 0.0
2020-Jun-03 19:31N 47°45' W 003°21'0 0.0
2020-Jun-03 18:25N 47°45' W 003°21'13 5.5
2020-Jun-03 16:00N 47°32' W 003°15'26 1.5
2020-Jun-02 22:59N 47°16' W 002°45'2 0.4
2020-Jun-02 17:21N 47°14' W 002°47'11 0.6
2020-Jun-01 23:34N 47°24' W 002°42'0 2.1
2020-Jun-01 23:30N 47°24' W 002°42'26 1.1
2020-Jun-01 00:30N 47°24' W 003°20'4 7.8
2020-Jun-01 00:00N 47°28' W 003°21'7 7.5
2020-May-31 23:01N 47°35' W 003°21'9 3.1
2020-May-31 19:58N 47°45' W 003°21'0 0.0
2020-May-31 17:58N 47°45' W 003°21'0 0.0
2020-May-31 17:28N 47°45' W 003°21'0 0.0
2020-May-31 15:58N 47°45' W 003°21'0 0.0
2020-May-31 15:28N 47°45' W 003°21'0 0.0
2020-May-31 14:28N 47°45' W 003°21'0 0.0
2020-May-31 13:28N 47°45' W 003°21'0 0.0
2020-May-31 12:28N 47°45' W 003°21'0 0.0
2020-May-31 10:58N 47°45' W 003°21'0 0.0
2020-May-31 09:28N 47°45' W 003°21'0 0.0
2020-May-31 07:28N 47°45' W 003°21'0 0.0
2020-May-31 06:25N 47°45' W 003°21'0 0.0
2020-May-31 03:58N 47°45' W 003°21'0 0.0
2020-May-31 02:58N 47°45' W 003°21'0 0.0
2020-May-31 00:58N 47°45' W 003°21'0 0.0
2020-May-30 22:28N 47°45' W 003°21'0 0.0
2020-May-30 21:28N 47°45' W 003°21'0 0.0
2020-May-30 20:28N 47°45' W 003°21'0 0.0
2020-May-30 19:58N 47°45' W 003°21'0 0.0
2020-May-30 19:28N 47°45' W 003°21'0 0.0
2020-May-30 18:28N 47°45' W 003°21'0 0.0
2020-May-30 17:28N 47°45' W 003°21'0 0.0
2020-May-30 16:28N 47°45' W 003°21'0 0.0
2020-May-30 14:28N 47°45' W 003°21'0 0.0
2020-May-30 07:28N 47°45' W 003°21'0 0.0
2020-May-30 05:28N 47°45' W 003°21'0 0.0
2020-May-30 02:58N 47°45' W 003°21'0 0.0
2020-May-30 02:28N 47°45' W 003°21'0 0.0
2020-May-29 22:58N 47°45' W 003°21'0 0.0
2020-May-29 19:28N 47°45' W 003°21'0 0.0
2020-May-29 18:28N 47°45' W 003°21'1 1.3
2020-May-29 17:29N 47°44' W 003°22'0 0.1
2020-May-29 15:58N 47°44' W 003°22'5 2.7
2020-May-29 14:00N 47°40' W 003°28'  
2020-May-25 05:48N 37°59' W 009°33'  
Track history (hours):
 
Tides and Currents Weather Stations Pressure Air Temp Water Temp Dewpoint Dewpoint Depression Visibility Wind Speed Wind Dir Waves Ship Positions

Oceanographic research ship Minibex (France)

Detailed information on ship capabilities available from University of Delaware's Ocean Information Center.

Last reported at 2020-Jun-04 05:31 UTC. Time now 2020-Jul-09 20:55 UTC.
Position N 47°45' W 003°21'.
Warning: this ship's position is 35 days out of date.

Length 30 m.

Type: Dredging. MMSI: 227135000.

Date/timePositionNaut miles runAvg speedWind from/ knotsBaromVisibWave heightAir tempDewpointWater temp
2020-Jun-04 05:31N 47°45' W 003°21'0 0.0
2020-Jun-04 04:31N 47°45' W 003°21'0 0.0
2020-Jun-04 01:31N 47°45' W 003°21'0 0.0
2020-Jun-03 22:01N 47°45' W 003°21'0 0.0
2020-Jun-03 21:01N 47°45' W 003°21'0 0.0
2020-Jun-03 19:31N 47°45' W 003°21'0 0.0
2020-Jun-03 18:25N 47°45' W 003°21'13 5.5
2020-Jun-03 16:00N 47°32' W 003°15'26 1.5
2020-Jun-02 22:59N 47°16' W 002°45'2 0.4
2020-Jun-02 17:21N 47°14' W 002°47'11 0.6
2020-Jun-01 23:34N 47°24' W 002°42'0 2.1
2020-Jun-01 23:30N 47°24' W 002°42'26 1.1
2020-Jun-01 00:30N 47°24' W 003°20'4 7.8
2020-Jun-01 00:00N 47°28' W 003°21'7 7.5
2020-May-31 23:01N 47°35' W 003°21'9 3.1
2020-May-31 19:58N 47°45' W 003°21'0 0.0
2020-May-31 17:58N 47°45' W 003°21'0 0.0
2020-May-31 17:28N 47°45' W 003°21'0 0.0
2020-May-31 15:58N 47°45' W 003°21'0 0.0
2020-May-31 15:28N 47°45' W 003°21'0 0.0
2020-May-31 14:28N 47°45' W 003°21'0 0.0
2020-May-31 13:28N 47°45' W 003°21'0 0.0
2020-May-31 12:28N 47°45' W 003°21'0 0.0
2020-May-31 10:58N 47°45' W 003°21'0 0.0
2020-May-31 09:28N 47°45' W 003°21'0 0.0
2020-May-31 07:28N 47°45' W 003°21'0 0.0
2020-May-31 06:25N 47°45' W 003°21'0 0.0
2020-May-31 03:58N 47°45' W 003°21'0 0.0
2020-May-31 02:58N 47°45' W 003°21'0 0.0
2020-May-31 00:58N 47°45' W 003°21'0 0.0
2020-May-30 22:28N 47°45' W 003°21'0 0.0
2020-May-30 21:28N 47°45' W 003°21'0 0.0
2020-May-30 20:28N 47°45' W 003°21'0 0.0
2020-May-30 19:58N 47°45' W 003°21'0 0.0
2020-May-30 19:28N 47°45' W 003°21'0 0.0
2020-May-30 18:28N 47°45' W 003°21'0 0.0
2020-May-30 17:28N 47°45' W 003°21'0 0.0
2020-May-30 16:28N 47°45' W 003°21'0 0.0
2020-May-30 14:28N 47°45' W 003°21'0 0.0
2020-May-30 07:28N 47°45' W 003°21'0 0.0
2020-May-30 05:28N 47°45' W 003°21'0 0.0
2020-May-30 02:58N 47°45' W 003°21'0 0.0
2020-May-30 02:28N 47°45' W 003°21'0 0.0
2020-May-29 22:58N 47°45' W 003°21'0 0.0
2020-May-29 19:28N 47°45' W 003°21'0 0.0
2020-May-29 18:28N 47°45' W 003°21'1 1.3
2020-May-29 17:29N 47°44' W 003°22'0 0.1
2020-May-29 15:58N 47°44' W 003°22'5 2.7
2020-May-29 14:00N 47°40' W 003°28'  
2020-May-25 05:48N 37°59' W 009°33'  

Dump ship's entire track history